createdAt,value
2023-01-04T00:00:52.207Z,11.13
2023-01-04T00:03:19.126Z,11.41
2023-01-04T00:05:45.819Z,11.48
2023-01-04T00:08:12.480Z,11.47
2023-01-04T00:10:39.144Z,10.94
2023-01-04T00:13:05.785Z,10.91
2023-01-04T00:15:32.460Z,11.03
2023-01-04T00:17:59.157Z,11.03
2023-01-04T00:20:25.801Z,11.01
2023-01-04T00:22:52.451Z,11.25
2023-01-04T00:25:19.336Z,11.11
2023-01-04T00:27:46.051Z,10.89
2023-01-04T00:30:13.151Z,10.93
2023-01-04T00:32:39.867Z,10.94
2023-01-04T00:35:06.650Z,10.79
2023-01-04T00:37:33.290Z,10.97
2023-01-04T00:39:59.895Z,11.09
2023-01-04T00:42:26.558Z,11.01
2023-01-04T00:44:53.194Z,10.96
2023-01-04T00:47:19.868Z,11.02
2023-01-04T00:49:46.536Z,10.95
2023-01-04T00:52:13.360Z,11.08
2023-01-04T00:54:40.059Z,10.90
2023-01-04T00:57:07.299Z,11.08
2023-01-04T00:59:33.899Z,11.13
2023-01-04T01:02:00.793Z,11.12
2023-01-04T01:04:27.756Z,11.15
2023-01-04T01:06:54.591Z,10.90
2023-01-04T01:09:24.638Z,10.84
2023-01-04T01:11:54.954Z,11.12
2023-01-04T01:14:25.442Z,11.09
2023-01-04T01:16:56.681Z,11.14
2023-01-04T01:19:25.328Z,11.29
2023-01-04T01:21:52.045Z,11.39
2023-01-04T01:24:19.651Z,11.09
2023-01-04T01:26:46.767Z,11.17
2023-01-04T01:29:13.903Z,11.02
2023-01-04T01:31:41.259Z,11.26
2023-01-04T01:34:08.616Z,11.15
2023-01-04T01:36:35.324Z,11.28
2023-01-04T01:39:01.988Z,11.36
2023-01-04T01:41:32.389Z,11.23
2023-01-04T01:44:01.035Z,11.33
2023-01-04T01:46:33.689Z,11.54
2023-01-04T01:49:19.269Z,11.46
2023-01-04T01:51:46.004Z,11.48
2023-01-04T01:54:20.660Z,11.40
2023-01-04T01:56:51.355Z,11.50
2023-01-04T01:59:19.446Z,11.57
2023-01-04T02:01:46.526Z,11.63
2023-01-04T02:04:15.483Z,11.57
2023-01-04T02:06:47.642Z,11.75
2023-01-04T02:09:15.092Z,11.70
2023-01-04T02:11:41.788Z,11.48
2023-01-04T02:14:27.602Z,11.31
2023-01-04T02:17:06.268Z,11.37
2023-01-04T02:19:51.867Z,11.55
2023-01-04T02:22:58.098Z,11.63
2023-01-04T02:25:33.951Z,11.66
2023-01-04T02:28:09.605Z,11.50
2023-01-04T02:30:45.474Z,11.60
2023-01-04T02:33:18.000Z,11.53
2023-01-04T02:36:05.679Z,11.34
2023-01-04T02:39:11.076Z,11.29
2023-01-04T02:42:16.768Z,11.31
2023-01-04T02:45:01.321Z,11.44
2023-01-04T02:47:49.391Z,11.23
2023-01-04T02:50:32.089Z,11.46
2023-01-04T02:53:05.130Z,11.29
2023-01-04T02:55:44.465Z,11.30
2023-01-04T02:58:25.152Z,11.21
2023-01-04T03:01:20.219Z,11.59
2023-01-04T03:04:26.835Z,11.33
2023-01-04T03:07:03.953Z,11.13
2023-01-04T03:09:35.541Z,11.53
2023-01-04T03:12:26.908Z,11.59
2023-01-04T03:15:12.624Z,11.46
2023-01-04T03:18:13.639Z,11.67
2023-01-04T03:20:43.764Z,11.59
2023-01-04T03:23:33.055Z,11.39
2023-01-04T03:26:23.448Z,11.46
2023-01-04T03:29:11.232Z,11.59
2023-01-04T03:32:01.645Z,11.54
2023-01-04T03:34:47.569Z,11.68
2023-01-04T03:37:17.110Z,11.60
2023-01-04T03:40:17.615Z,11.68
2023-01-04T03:43:06.107Z,11.69
2023-01-04T03:45:59.194Z,11.48
2023-01-04T03:48:36.159Z,11.54
2023-01-04T03:51:15.006Z,11.46
2023-01-04T03:53:56.729Z,11.49
2023-01-04T03:56:26.536Z,11.74
2023-01-04T03:58:54.693Z,11.60
2023-01-04T04:01:23.724Z,11.55
2023-01-04T04:04:08.872Z,11.56
2023-01-04T04:06:54.161Z,11.68
2023-01-04T04:09:20.966Z,11.76
2023-01-04T04:11:47.719Z,11.68
2023-01-04T04:14:14.426Z,11.86
2023-01-04T04:16:41.370Z,11.56
2023-01-04T04:19:09.070Z,11.59
2023-01-04T04:21:36.399Z,11.90
2023-01-04T04:24:03.766Z,11.94
2023-01-04T04:26:30.762Z,11.81
2023-01-04T04:28:57.428Z,12.02
2023-01-04T04:31:24.272Z,11.88
2023-01-04T04:33:50.994Z,11.84
2023-01-04T04:36:17.638Z,11.95
2023-01-04T04:38:44.287Z,11.90
2023-01-04T04:41:31.879Z,12.03
2023-01-04T04:43:59.236Z,11.99
2023-01-04T04:46:25.901Z,11.98
2023-01-04T04:48:52.819Z,12.07
2023-01-04T04:51:19.485Z,11.88
2023-01-04T04:53:46.170Z,11.57
2023-01-04T04:56:12.821Z,11.92
2023-01-04T04:58:40.009Z,12.01
2023-01-04T05:01:07.326Z,12.12
2023-01-04T05:03:34.580Z,11.98
2023-01-04T05:06:01.595Z,11.97
2023-01-04T05:08:28.848Z,12.22
2023-01-04T05:10:55.520Z,12.05
2023-01-04T05:13:22.561Z,11.97
2023-01-04T05:15:50.845Z,11.91
2023-01-04T05:18:19.676Z,11.75
2023-01-04T05:20:47.523Z,11.97
2023-01-04T05:23:15.697Z,11.87
2023-01-04T05:25:42.701Z,11.34
2023-01-04T05:28:10.149Z,11.76
2023-01-04T05:30:53.269Z,11.53
2023-01-04T05:33:22.818Z,11.89
2023-01-04T05:35:50.233Z,11.35
2023-01-04T05:38:17.375Z,11.71
2023-01-04T05:40:44.254Z,11.88
2023-01-04T05:43:11.245Z,11.83
2023-01-04T05:45:37.893Z,11.57
2023-01-04T05:48:04.824Z,11.94
2023-01-04T05:50:31.646Z,11.98
2023-01-04T05:53:07.725Z,11.80
2023-01-04T05:55:34.656Z,11.94
2023-01-04T05:58:01.399Z,11.72
2023-01-04T06:00:28.892Z,11.82
2023-01-04T06:02:56.996Z,11.98
2023-01-04T06:05:24.590Z,12.00
2023-01-04T06:07:51.485Z,11.91
2023-01-04T06:10:19.304Z,11.76
2023-01-04T06:12:47.385Z,11.55
2023-01-04T06:15:14.514Z,11.88
2023-01-04T06:17:41.549Z,11.77
2023-01-04T06:20:10.500Z,11.52
2023-01-04T06:22:38.037Z,11.49
2023-01-04T06:25:05.144Z,11.87
2023-01-04T06:27:31.890Z,11.77
2023-01-04T06:29:58.587Z,11.64
2023-01-04T06:32:25.368Z,11.63
2023-01-04T06:34:52.144Z,11.56
2023-01-04T06:37:18.865Z,11.72
2023-01-04T06:39:45.575Z,11.82
2023-01-04T06:42:32.181Z,11.90
2023-01-04T06:44:58.971Z,11.79
2023-01-04T06:47:25.815Z,11.85
2023-01-04T06:49:52.772Z,11.69
2023-01-04T06:52:19.572Z,11.71
2023-01-04T06:54:46.397Z,11.92
2023-01-04T06:57:13.757Z,11.78
2023-01-04T06:59:40.541Z,11.77
2023-01-04T07:02:07.503Z,11.91
2023-01-04T07:04:34.323Z,12.08
2023-01-04T07:07:02.052Z,11.59
2023-01-04T07:09:28.764Z,11.68
2023-01-04T07:11:55.385Z,11.97
2023-01-04T07:14:22.100Z,11.69
2023-01-04T07:16:48.813Z,11.61
2023-01-04T07:19:15.645Z,11.82
2023-01-04T07:21:42.450Z,11.80
2023-01-04T07:24:09.415Z,11.73
2023-01-04T07:26:36.287Z,11.69
2023-01-04T07:29:15.550Z,11.83
2023-01-04T07:31:52.545Z,11.85
2023-01-04T07:34:22.443Z,11.76
2023-01-04T07:36:50.100Z,11.94
2023-01-04T07:39:18.404Z,12.11
2023-01-04T07:41:46.008Z,11.88
2023-01-04T07:44:14.970Z,12.14
2023-01-04T07:46:42.713Z,12.03
2023-01-04T07:49:17.734Z,12.18
2023-01-04T07:51:49.638Z,12.27
2023-01-04T07:54:17.388Z,12.12
2023-01-04T07:56:47.824Z,11.96
2023-01-04T07:59:16.204Z,11.93
2023-01-04T08:01:43.523Z,12.21
2023-01-04T08:04:12.546Z,12.13
2023-01-04T08:06:40.649Z,12.35
2023-01-04T08:09:11.469Z,12.39
2023-01-04T08:11:38.652Z,12.16
2023-01-04T08:14:05.366Z,12.30
2023-01-04T08:16:37.663Z,12.30
2023-01-04T08:19:13.293Z,12.45
2023-01-04T08:21:40.039Z,12.50
2023-01-04T08:24:09.940Z,12.61
2023-01-04T08:26:36.665Z,12.68
2023-01-04T08:29:03.343Z,12.80
2023-01-04T08:31:32.153Z,12.63
2023-01-04T08:34:01.417Z,12.63
2023-01-04T08:36:30.758Z,12.73
2023-01-04T08:39:03.226Z,12.45
2023-01-04T08:41:56.148Z,12.66
2023-01-04T08:44:18.836Z,12.43
2023-01-04T08:46:46.108Z,12.62
2023-01-04T08:49:13.162Z,12.94
2023-01-04T08:51:40.297Z,12.57
2023-01-04T08:54:07.309Z,12.75
2023-01-04T08:56:34.058Z,12.50
2023-01-04T08:59:01.571Z,12.98
2023-01-04T09:01:28.426Z,12.79
2023-01-04T09:03:56.371Z,12.83
2023-01-04T09:06:23.271Z,12.88
2023-01-04T09:08:50.592Z,12.94
2023-01-04T09:11:20.143Z,12.84
2023-01-04T09:13:47.613Z,12.81
2023-01-04T09:16:17.211Z,12.84
2023-01-04T09:18:44.701Z,13.09
2023-01-04T09:21:16.480Z,12.85
2023-01-04T09:23:44.721Z,12.78
2023-01-04T09:26:14.607Z,12.42
2023-01-04T09:28:42.099Z,12.46
2023-01-04T09:31:17.926Z,12.89
2023-01-04T09:34:13.622Z,12.78
2023-01-04T09:36:32.487Z,12.27
2023-01-04T09:38:59.174Z,12.63
2023-01-04T09:41:27.650Z,12.96
2023-01-04T09:44:02.157Z,12.71
2023-01-04T09:46:46.829Z,12.92
2023-01-04T09:49:21.176Z,12.36
2023-01-04T09:52:00.492Z,12.59
2023-01-04T09:54:42.498Z,12.98
2023-01-04T09:57:45.553Z,12.93
2023-01-04T10:00:19.813Z,12.90
2023-01-04T10:03:11.913Z,12.69
2023-01-04T10:05:40.409Z,12.73
2023-01-04T10:08:15.612Z,12.92
2023-01-04T10:11:14.546Z,12.84
2023-01-04T10:14:11.842Z,12.83
2023-01-04T10:17:12.923Z,12.72
2023-01-04T10:21:12.030Z,12.72
2023-01-04T10:22:51.270Z,12.61
2023-01-04T10:25:23.284Z,12.74
2023-01-04T10:28:25.158Z,12.33
2023-01-04T10:31:01.102Z,12.83
2023-01-04T10:33:50.492Z,12.60
2023-01-04T10:36:25.252Z,12.97
2023-01-04T10:39:00.375Z,12.89
2023-01-04T10:41:31.860Z,12.81
2023-01-04T10:44:12.209Z,12.97
2023-01-04T10:46:58.070Z,13.22
2023-01-04T10:49:43.653Z,13.25
2023-01-04T10:52:26.964Z,13.26
2023-01-04T10:55:01.918Z,13.58
2023-01-04T10:57:39.390Z,13.59
2023-01-04T11:00:13.502Z,13.81
2023-01-04T11:02:47.347Z,13.40
2023-01-04T11:05:20.829Z,13.59
2023-01-04T11:07:59.894Z,13.66
2023-01-04T11:10:50.768Z,13.59
2023-01-04T11:13:17.925Z,13.72
2023-01-04T11:15:45.565Z,14.01
2023-01-04T11:18:13.988Z,13.60
2023-01-04T11:20:41.296Z,13.54
2023-01-04T11:23:14.437Z,13.56
2023-01-04T11:26:13.284Z,13.65
2023-01-04T11:28:44.356Z,13.80
2023-01-04T11:31:20.190Z,13.54
2023-01-04T11:33:58.787Z,14.04
2023-01-04T11:36:31.727Z,13.39
2023-01-04T11:38:59.105Z,13.65
2023-01-04T11:41:26.661Z,13.61
2023-01-04T11:44:03.462Z,13.98
2023-01-04T11:46:31.940Z,13.49
2023-01-04T11:48:58.882Z,13.67
2023-01-04T11:51:31.700Z,13.48
2023-01-04T11:54:15.174Z,13.15
2023-01-04T11:57:05.808Z,13.62
2023-01-04T11:59:35.626Z,13.73
2023-01-04T12:02:58.634Z,13.79
2023-01-04T12:05:29.005Z,13.56
2023-01-04T12:07:58.051Z,13.52
2023-01-04T12:10:27.561Z,13.39
2023-01-04T12:12:56.346Z,13.41
2023-01-04T12:16:05.157Z,13.94
2023-01-04T12:18:38.916Z,13.83
2023-01-04T12:21:05.979Z,13.75
2023-01-04T12:23:34.207Z,13.62
2023-01-04T12:26:01.955Z,13.54
2023-01-04T12:28:31.112Z,13.68
2023-01-04T12:31:20.222Z,13.86
2023-01-04T12:34:17.389Z,13.73
2023-01-04T12:36:50.124Z,13.90
2023-01-04T12:39:16.825Z,13.84
2023-01-04T12:42:00.201Z,13.85
2023-01-04T12:44:38.999Z,13.75
2023-01-04T12:47:36.724Z,13.76
2023-01-04T12:50:27.426Z,13.84
2023-01-04T12:53:29.328Z,13.72
2023-01-04T12:55:45.418Z,13.66
2023-01-04T12:58:41.061Z,13.64
2023-01-04T13:01:26.035Z,13.65
2023-01-04T13:04:04.689Z,13.87
2023-01-04T13:06:41.555Z,13.67
2023-01-04T13:09:24.920Z,13.68
2023-01-04T13:12:03.945Z,13.60
2023-01-04T13:14:40.524Z,13.58
2023-01-04T13:17:15.002Z,13.57
2023-01-04T13:19:43.932Z,13.74
2023-01-04T13:22:18.204Z,14.04
2023-01-04T13:24:49.137Z,13.75
2023-01-04T13:27:21.697Z,13.45
2023-01-04T13:29:52.282Z,13.36
2023-01-04T13:32:30.545Z,13.63
2023-01-04T13:35:23.774Z,13.71
2023-01-04T13:37:51.393Z,13.49
2023-01-04T13:40:34.293Z,13.57
2023-01-04T13:43:16.136Z,13.82
2023-01-04T13:46:07.960Z,13.79
2023-01-04T13:48:41.462Z,14.12
2023-01-04T13:51:16.360Z,13.99
2023-01-04T13:53:57.369Z,13.81
2023-01-04T13:56:27.093Z,13.99
2023-01-04T13:58:54.224Z,14.16
2023-01-04T14:01:26.562Z,13.94
2023-01-04T14:04:01.770Z,13.90
2023-01-04T14:06:34.251Z,13.83
2023-01-04T14:09:25.058Z,13.86
2023-01-04T14:14:55.344Z,14.07
2023-01-04T14:17:32.237Z,14.28
2023-01-04T14:20:26.499Z,14.10
2023-01-04T14:22:58.310Z,13.88
2023-01-04T14:25:34.148Z,13.98
2023-01-04T14:28:22.437Z,14.01
2023-01-04T14:30:52.180Z,14.17
2023-01-04T14:33:26.198Z,14.26
2023-01-04T14:36:04.008Z,13.89
2023-01-04T14:38:35.329Z,13.85
2023-01-04T14:41:18.454Z,14.23
2023-01-04T14:43:55.030Z,14.19
2023-01-04T14:46:22.887Z,14.38
2023-01-04T14:48:49.845Z,14.25
2023-01-04T14:51:19.838Z,14.39
2023-01-04T14:53:46.693Z,14.34
2023-01-04T14:56:15.812Z,14.49
2023-01-04T14:58:43.124Z,14.47
2023-01-04T15:01:11.097Z,14.33
2023-01-04T15:03:38.883Z,14.18
2023-01-04T15:06:06.596Z,13.80
2023-01-04T15:08:33.897Z,13.91
2023-01-04T15:11:00.626Z,14.06
2023-01-04T15:13:28.046Z,14.24
2023-01-04T15:15:57.192Z,13.42
2023-01-04T15:18:24.023Z,14.04
2023-01-04T15:20:50.681Z,13.74
2023-01-04T15:23:17.339Z,13.92
2023-01-04T15:25:44.553Z,13.62
2023-01-04T15:28:11.273Z,13.88
2023-01-04T15:30:42.875Z,14.16
2023-01-04T15:33:10.262Z,14.07
2023-01-04T15:35:36.916Z,14.11
2023-01-04T15:38:06.455Z,14.14
2023-01-04T15:40:35.792Z,13.67
2023-01-04T15:43:03.207Z,14.09
2023-01-04T15:45:40.368Z,13.93
2023-01-04T15:48:11.105Z,14.01
2023-01-04T15:50:40.421Z,13.74
2023-01-04T15:53:07.811Z,13.85
2023-01-04T15:55:37.012Z,13.90
2023-01-04T15:58:05.107Z,13.81
2023-01-04T16:00:32.809Z,13.73
2023-01-04T16:02:59.752Z,14.01
2023-01-04T16:05:26.533Z,13.60
2023-01-04T16:07:53.274Z,13.86
2023-01-04T16:10:20.061Z,13.65
2023-01-04T16:12:54.565Z,13.64
2023-01-04T16:15:23.358Z,13.73
2023-01-04T16:17:50.335Z,14.12
2023-01-04T16:20:18.476Z,13.55
2023-01-04T16:22:45.704Z,13.94
2023-01-04T16:25:13.096Z,14.06
2023-01-04T16:27:40.854Z,13.67
2023-01-04T16:30:11.130Z,13.66
2023-01-04T16:32:43.480Z,14.16
2023-01-04T16:35:11.594Z,13.52
2023-01-04T16:37:39.096Z,13.43
2023-01-04T16:40:07.874Z,13.30
2023-01-04T16:42:36.258Z,13.30
2023-01-04T16:45:03.729Z,13.52
2023-01-04T16:47:39.009Z,13.32
2023-01-04T16:50:07.066Z,13.48
2023-01-04T16:52:33.848Z,13.44
2023-01-04T16:55:00.534Z,13.44
2023-01-04T16:57:27.275Z,13.54
2023-01-04T16:59:53.918Z,13.68
2023-01-04T17:02:21.018Z,13.86
2023-01-04T17:04:54.379Z,13.77
2023-01-04T17:07:21.645Z,13.49
2023-01-04T17:09:51.376Z,13.74
2023-01-04T17:15:41.298Z,13.31
2023-01-04T17:17:52.031Z,13.64
2023-01-04T17:20:18.960Z,13.67
2023-01-04T17:22:45.755Z,14.07
2023-01-04T17:25:12.555Z,13.72
2023-01-04T17:27:39.327Z,13.71
2023-01-04T17:30:06.556Z,13.58
2023-01-04T17:32:33.226Z,13.70
2023-01-04T17:34:59.868Z,13.72
2023-01-04T17:37:27.100Z,13.85
2023-01-04T17:39:54.340Z,13.69
2023-01-04T17:42:21.280Z,13.93
2023-01-04T17:44:49.381Z,13.99
2023-01-04T17:47:16.099Z,13.86
2023-01-04T17:49:42.754Z,14.18
2023-01-04T17:52:10.984Z,13.64
2023-01-04T17:54:40.408Z,13.81
2023-01-04T17:57:07.076Z,13.95
2023-01-04T17:59:33.767Z,13.72
2023-01-04T18:02:00.550Z,13.84
2023-01-04T18:04:27.306Z,13.62
2023-01-04T18:06:54.400Z,13.89
2023-01-04T18:09:24.538Z,13.60
2023-01-04T18:11:51.333Z,13.85
2023-01-04T18:14:18.215Z,13.68
2023-01-04T18:16:58.018Z,14.02
2023-01-04T18:19:27.865Z,14.21
2023-01-04T18:21:55.031Z,13.80
2023-01-04T18:24:38.655Z,13.79
2023-01-04T18:27:25.193Z,13.74
2023-01-04T18:29:54.284Z,14.09
2023-01-04T18:32:22.007Z,14.09
2023-01-04T18:34:48.943Z,14.00
2023-01-04T18:37:16.566Z,14.07
2023-01-04T18:39:43.424Z,14.12
2023-01-04T18:42:10.337Z,14.04
2023-01-04T18:44:43.811Z,14.01
2023-01-04T18:47:12.683Z,14.10
2023-01-04T18:49:39.483Z,13.80
2023-01-04T18:52:06.359Z,13.99
2023-01-04T18:54:34.027Z,13.99
2023-01-04T18:57:01.638Z,14.26
2023-01-04T18:59:30.965Z,14.09
2023-01-04T19:02:02.910Z,14.04
2023-01-04T19:04:32.283Z,14.33
2023-01-04T19:06:59.451Z,14.26
2023-01-04T19:09:26.251Z,14.10
2023-01-04T19:11:53.015Z,14.26
2023-01-04T19:14:19.789Z,14.28
2023-01-04T19:16:46.546Z,13.96
2023-01-04T19:19:13.171Z,14.15
2023-01-04T19:21:40.156Z,14.09
2023-01-04T19:24:07.249Z,14.38
2023-01-04T19:26:36.570Z,14.33
2023-01-04T19:29:05.203Z,14.47
2023-01-04T19:31:31.917Z,14.57
2023-01-04T19:33:58.630Z,14.74
2023-01-04T19:36:25.350Z,14.72
2023-01-04T19:38:53.677Z,14.67
2023-01-04T19:41:31.018Z,14.94
2023-01-04T19:44:05.661Z,15.03
2023-01-04T19:46:32.674Z,14.80
2023-01-04T19:48:59.838Z,14.73
2023-01-04T19:51:27.909Z,15.13
2023-01-04T19:53:55.116Z,14.87
2023-01-04T19:56:22.116Z,15.20
2023-01-04T19:58:48.973Z,15.31
2023-01-04T20:01:21.334Z,15.06
2023-01-04T20:03:48.307Z,15.22
2023-01-04T20:06:16.260Z,15.28
2023-01-04T20:08:43.513Z,15.36
2023-01-04T20:11:11.788Z,15.00
2023-01-04T20:13:39.243Z,14.92
2023-01-04T20:16:06.489Z,15.22
2023-01-04T20:18:33.899Z,15.03
2023-01-04T20:21:00.620Z,14.92
2023-01-04T20:23:27.856Z,15.17
2023-01-04T20:25:54.848Z,15.04
2023-01-04T20:28:24.941Z,14.99
2023-01-04T20:31:06.864Z,14.93
2023-01-04T20:33:33.771Z,14.95
2023-01-04T20:36:06.659Z,15.34
2023-01-04T20:38:39.875Z,15.26
2023-01-04T20:41:08.303Z,15.38
2023-01-04T20:43:36.191Z,15.28
2023-01-04T20:46:12.172Z,14.95
2023-01-04T20:48:39.801Z,14.99
2023-01-04T20:51:15.190Z,15.17
2023-01-04T20:53:42.304Z,15.12
2023-01-04T20:56:18.432Z,15.23
2023-01-04T20:58:46.435Z,15.33
2023-01-04T21:01:14.046Z,15.35
2023-01-04T21:03:40.944Z,15.07
2023-01-04T21:06:13.339Z,15.29
2023-01-04T21:08:41.954Z,15.02
2023-01-04T21:11:09.521Z,15.50
2023-01-04T21:13:36.224Z,15.46
2023-01-04T21:16:03.105Z,15.12
2023-01-04T21:18:29.921Z,15.34
2023-01-04T21:20:56.581Z,15.44
2023-01-04T21:23:26.859Z,15.25
2023-01-04T21:25:53.864Z,15.28
2023-01-04T21:28:21.860Z,15.12
2023-01-04T21:30:49.509Z,15.29
2023-01-04T21:33:17.147Z,15.13
2023-01-04T21:35:44.027Z,15.03
2023-01-04T21:38:11.386Z,15.13
2023-01-04T21:40:41.767Z,15.25
2023-01-04T21:43:15.978Z,15.10
2023-01-04T21:45:42.916Z,15.21
2023-01-04T21:48:09.688Z,15.18
2023-01-04T21:50:36.952Z,15.27
2023-01-04T21:53:03.886Z,15.30
2023-01-04T21:55:34.495Z,15.11
2023-01-04T21:58:02.181Z,15.32
2023-01-04T22:00:28.843Z,15.08
2023-01-04T22:02:55.556Z,15.16
2023-01-04T22:05:22.509Z,15.06
2023-01-04T22:07:49.211Z,15.47
2023-01-04T22:10:15.930Z,15.30
2023-01-04T22:12:44.816Z,15.24
2023-01-04T22:15:11.647Z,15.31
2023-01-04T22:17:38.549Z,15.12
2023-01-04T22:20:05.817Z,15.18
2023-01-04T22:22:32.556Z,15.23
2023-01-04T22:24:59.195Z,15.12
2023-01-04T22:27:27.160Z,15.22
2023-01-04T22:29:53.855Z,15.22
2023-01-04T22:32:20.507Z,15.14
2023-01-04T22:34:47.123Z,15.29
2023-01-04T22:37:13.808Z,15.02
2023-01-04T22:39:40.480Z,15.21
2023-01-04T22:42:07.307Z,15.48
2023-01-04T22:44:34.106Z,15.28
2023-01-04T22:47:00.957Z,15.25
2023-01-04T22:49:27.688Z,15.11
2023-01-04T22:51:55.779Z,15.51
2023-01-04T22:54:22.948Z,15.19
2023-01-04T22:56:50.478Z,15.11
2023-01-04T22:59:17.237Z,15.41
2023-01-04T23:01:43.932Z,15.00
2023-01-04T23:04:15.395Z,15.51
2023-01-04T23:06:42.433Z,15.17
2023-01-04T23:09:13.071Z,15.14
2023-01-04T23:11:41.002Z,15.10
2023-01-04T23:14:11.113Z,15.06
2023-01-04T23:16:38.395Z,14.98
2023-01-04T23:19:06.821Z,15.06
2023-01-04T23:21:34.831Z,15.28
2023-01-04T23:24:02.236Z,15.74
2023-01-04T23:26:30.299Z,15.13
2023-01-04T23:28:57.218Z,15.22
2023-01-04T23:31:25.937Z,15.47
2023-01-04T23:33:54.979Z,15.36
2023-01-04T23:36:24.273Z,15.34
2023-01-04T23:38:53.344Z,15.57
2023-01-04T23:41:20.267Z,15.64
2023-01-04T23:43:47.248Z,15.79
2023-01-04T23:46:16.193Z,15.63
2023-01-04T23:48:43.959Z,15.58
2023-01-04T23:51:13.073Z,15.40
2023-01-04T23:53:39.954Z,15.48
2023-01-04T23:56:13.348Z,15.65
2023-01-04T23:58:40.158Z,15.46
